createdAt,value
2022-10-10T00:02:06.507Z,19.80
2022-10-10T00:04:53.190Z,19.78
2022-10-10T00:07:38.609Z,19.78
2022-10-10T00:10:23.937Z,19.79
2022-10-10T00:13:09.503Z,19.78
2022-10-10T00:15:54.981Z,19.79
2022-10-10T00:18:41.805Z,19.77
2022-10-10T00:21:27.358Z,19.77
2022-10-10T00:24:12.605Z,19.77
2022-10-10T00:26:57.967Z,19.76
2022-10-10T00:29:43.187Z,19.76
2022-10-10T00:32:28.578Z,19.75
2022-10-10T00:35:13.998Z,19.77
2022-10-10T00:37:59.242Z,19.76
2022-10-10T00:40:54.145Z,19.77
2022-10-10T00:43:40.512Z,19.76
2022-10-10T00:46:25.982Z,19.77
2022-10-10T00:49:21.164Z,19.77
2022-10-10T00:52:09.811Z,19.76
2022-10-10T00:54:55.002Z,19.76
2022-10-10T00:57:41.040Z,19.76
2022-10-10T01:00:26.630Z,19.77
2022-10-10T01:03:12.256Z,19.77
2022-10-10T01:05:57.887Z,19.75
2022-10-10T01:08:43.397Z,19.76
2022-10-10T01:11:38.075Z,19.75
2022-10-10T01:14:29.408Z,19.75
2022-10-10T01:17:26.205Z,19.75
2022-10-10T01:20:20.495Z,19.75
2022-10-10T01:23:30.562Z,19.76
2022-10-10T01:26:34.464Z,19.75
2022-10-10T01:29:43.258Z,19.75
2022-10-10T01:32:52.097Z,19.73
2022-10-10T01:35:50.795Z,19.72
2022-10-10T01:38:59.575Z,19.72
2022-10-10T01:41:58.302Z,19.75
2022-10-10T01:44:45.278Z,19.73
2022-10-10T01:47:30.383Z,19.74
2022-10-10T01:50:21.027Z,19.74
2022-10-10T01:53:56.086Z,19.73
2022-10-10T01:57:15.971Z,19.74
2022-10-10T02:00:17.341Z,19.72
2022-10-10T02:03:16.777Z,19.70
2022-10-10T02:06:13.139Z,19.70
2022-10-10T02:09:05.245Z,19.71
2022-10-10T02:11:51.138Z,19.70
2022-10-10T02:14:42.659Z,19.71
2022-10-10T02:17:29.776Z,19.69
2022-10-10T02:20:20.781Z,19.70
2022-10-10T02:23:08.234Z,19.69
2022-10-10T02:25:57.099Z,19.70
2022-10-10T02:28:57.550Z,19.68
2022-10-10T02:32:11.979Z,19.68
2022-10-10T02:35:03.325Z,19.68
2022-10-10T02:37:49.839Z,19.68
2022-10-10T02:40:36.092Z,19.68
2022-10-10T02:43:22.378Z,19.68
2022-10-10T02:46:12.167Z,19.68
2022-10-10T02:48:58.512Z,19.68
2022-10-10T02:51:43.841Z,19.67
2022-10-10T02:54:29.049Z,19.68
2022-10-10T02:57:14.396Z,19.67
2022-10-10T02:59:59.674Z,19.70
2022-10-10T03:02:46.318Z,19.68
2022-10-10T03:05:31.920Z,19.70
2022-10-10T03:08:17.352Z,19.69
2022-10-10T03:11:02.697Z,19.68
2022-10-10T03:13:47.782Z,19.67
2022-10-10T03:16:33.131Z,19.67
2022-10-10T03:19:18.645Z,19.66
2022-10-10T03:22:04.253Z,19.65
2022-10-10T03:24:49.948Z,19.66
2022-10-10T03:27:35.295Z,19.66
2022-10-10T03:30:20.717Z,19.65
2022-10-10T03:33:07.273Z,19.65
2022-10-10T03:35:52.579Z,19.65
2022-10-10T03:38:39.808Z,19.65
2022-10-10T03:41:25.501Z,19.64
2022-10-10T03:44:10.631Z,19.65
2022-10-10T03:46:56.041Z,19.65
2022-10-10T03:49:41.191Z,19.65
2022-10-10T03:52:26.497Z,19.65
2022-10-10T03:55:11.908Z,19.66
2022-10-10T03:57:57.338Z,19.64
2022-10-10T04:00:43.194Z,19.65
2022-10-10T04:03:29.371Z,19.65
2022-10-10T04:06:15.087Z,19.65
2022-10-10T04:09:00.758Z,19.64
2022-10-10T04:11:45.885Z,19.66
2022-10-10T04:14:31.285Z,19.65
2022-10-10T04:17:16.892Z,19.65
2022-10-10T04:20:02.180Z,19.67
2022-10-10T04:22:47.699Z,19.66
2022-10-10T04:25:33.337Z,19.71
2022-10-10T04:28:19.299Z,19.70
2022-10-10T04:31:05.215Z,19.74
2022-10-10T04:33:50.733Z,19.75
2022-10-10T04:36:36.871Z,19.79
2022-10-10T04:39:22.291Z,19.81
2022-10-10T04:42:07.756Z,19.81
2022-10-10T04:44:53.093Z,19.83
2022-10-10T04:47:38.308Z,19.83
2022-10-10T04:50:23.714Z,19.85
2022-10-10T04:53:09.144Z,19.86
2022-10-10T04:55:54.596Z,19.89
2022-10-10T04:58:39.854Z,19.90
2022-10-10T05:01:25.188Z,19.91
2022-10-10T05:04:10.604Z,19.92
2022-10-10T05:06:55.974Z,19.90
2022-10-10T05:09:41.231Z,19.88
2022-10-10T05:12:26.831Z,19.86
2022-10-10T05:15:12.553Z,19.85
2022-10-10T05:17:58.361Z,19.85
2022-10-10T05:20:47.731Z,19.86
2022-10-10T05:23:34.707Z,19.85
2022-10-10T05:26:21.204Z,19.85
2022-10-10T05:29:06.474Z,19.86
2022-10-10T05:31:52.135Z,19.87
2022-10-10T05:34:38.351Z,19.88
2022-10-10T05:37:24.415Z,19.87
2022-10-10T05:40:09.930Z,19.87
2022-10-10T05:42:55.256Z,19.89
2022-10-10T05:45:41.003Z,19.87
2022-10-10T05:48:27.108Z,19.87
2022-10-10T05:51:13.376Z,19.89
2022-10-10T05:54:00.218Z,19.87
2022-10-10T05:56:46.447Z,19.90
2022-10-10T05:59:31.803Z,19.86
2022-10-10T06:02:17.266Z,19.85
2022-10-10T06:05:02.808Z,19.86
2022-10-10T06:08:09.323Z,19.87
2022-10-10T06:10:54.286Z,19.87
2022-10-10T06:13:39.729Z,19.86
2022-10-10T06:16:27.260Z,19.86
2022-10-10T06:19:15.145Z,19.87
2022-10-10T06:22:01.662Z,19.87
2022-10-10T06:24:52.167Z,19.88
2022-10-10T06:27:38.668Z,19.88
2022-10-10T06:30:24.225Z,19.87
2022-10-10T06:33:12.162Z,19.88
2022-10-10T06:35:58.122Z,19.88
2022-10-10T06:38:45.916Z,19.88
2022-10-10T06:41:31.464Z,19.85
2022-10-10T06:44:17.994Z,19.84
2022-10-10T06:47:03.657Z,19.84
2022-10-10T06:49:49.273Z,19.83
2022-10-10T06:52:34.708Z,19.83
2022-10-10T06:55:19.965Z,19.83
2022-10-10T06:58:05.850Z,19.81
2022-10-10T07:00:55.556Z,19.81
2022-10-10T07:03:40.752Z,19.81
2022-10-10T07:06:26.054Z,19.82
2022-10-10T07:09:11.265Z,19.79
2022-10-10T07:11:56.559Z,19.78
2022-10-10T07:14:41.943Z,19.78
2022-10-10T07:17:27.265Z,19.80
2022-10-10T07:20:13.026Z,19.80
2022-10-10T07:22:58.389Z,19.78
2022-10-10T07:25:44.213Z,19.74
2022-10-10T07:28:30.068Z,19.76
2022-10-10T07:31:16.035Z,19.75
2022-10-10T07:34:01.538Z,19.75
2022-10-10T07:36:50.257Z,19.73
2022-10-10T07:39:35.680Z,19.73
2022-10-10T07:42:21.692Z,19.74
2022-10-10T07:45:07.307Z,19.75
2022-10-10T07:47:53.969Z,19.76
2022-10-10T07:50:44.115Z,19.76
2022-10-10T07:53:29.616Z,19.76
2022-10-10T07:56:15.023Z,19.77
2022-10-10T07:59:00.995Z,19.76
2022-10-10T08:01:46.273Z,19.77
2022-10-10T08:04:31.409Z,19.72
2022-10-10T08:07:16.688Z,19.71
2022-10-10T08:10:02.595Z,19.72
2022-10-10T08:12:48.167Z,19.71
2022-10-10T08:15:34.130Z,19.70
2022-10-10T08:18:20.154Z,19.72
2022-10-10T08:21:08.898Z,19.72
2022-10-10T08:23:55.480Z,19.71
2022-10-10T08:26:40.750Z,19.71
2022-10-10T08:29:26.191Z,19.75
2022-10-10T08:32:11.465Z,19.77
2022-10-10T08:34:56.849Z,19.81
2022-10-10T08:37:42.283Z,19.85
2022-10-10T08:40:28.809Z,19.88
2022-10-10T08:43:31.856Z,19.90
2022-10-10T08:46:27.315Z,19.91
2022-10-10T08:49:43.548Z,19.91
2022-10-10T08:52:41.650Z,19.92
2022-10-10T08:55:33.770Z,19.94
2022-10-10T08:58:18.893Z,19.93
2022-10-10T09:01:15.643Z,19.94
2022-10-10T09:04:03.402Z,19.98
2022-10-10T09:07:10.863Z,20.00
2022-10-10T09:10:06.279Z,20.01
2022-10-10T09:13:07.455Z,20.02
2022-10-10T09:16:00.480Z,20.04
2022-10-10T09:19:07.643Z,20.05
2022-10-10T09:21:57.449Z,20.04
2022-10-10T09:25:00.049Z,20.03
2022-10-10T09:27:58.617Z,20.02
2022-10-10T09:30:53.009Z,20.06
2022-10-10T09:33:58.995Z,20.04
2022-10-10T09:36:45.587Z,20.07
2022-10-10T09:39:48.152Z,20.07
2022-10-10T09:42:39.493Z,20.08
2022-10-10T09:45:32.916Z,20.09
2022-10-10T09:48:19.231Z,20.09
2022-10-10T09:51:07.588Z,20.07
2022-10-10T09:53:53.081Z,20.09
2022-10-10T09:56:58.657Z,20.14
2022-10-10T09:59:45.805Z,20.14
2022-10-10T10:02:31.508Z,20.14
2022-10-10T10:05:26.472Z,20.14
2022-10-10T10:08:31.751Z,20.14
2022-10-10T10:11:28.833Z,20.17
2022-10-10T10:14:27.455Z,20.18
2022-10-10T10:17:16.841Z,20.16
2022-10-10T10:20:02.178Z,20.18
2022-10-10T10:22:47.701Z,20.17
2022-10-10T10:25:37.677Z,20.19
2022-10-10T10:28:23.447Z,20.21
2022-10-10T10:31:20.417Z,20.20
2022-10-10T10:34:20.806Z,20.21
2022-10-10T10:37:27.691Z,20.22
2022-10-10T10:40:29.846Z,20.21
2022-10-10T10:43:14.841Z,20.23
2022-10-10T10:46:11.731Z,20.23
2022-10-10T10:49:02.129Z,20.23
2022-10-10T10:51:50.680Z,20.24
2022-10-10T10:54:42.400Z,20.23
2022-10-10T10:57:45.447Z,20.22
2022-10-10T11:01:20.947Z,20.24
2022-10-10T11:05:20.169Z,20.24
2022-10-10T11:08:12.798Z,20.24
2022-10-10T11:11:23.445Z,20.24
2022-10-10T11:14:24.251Z,20.24
2022-10-10T11:17:30.073Z,20.24
2022-10-10T11:20:49.862Z,20.24
2022-10-10T11:24:06.299Z,20.23
2022-10-10T11:26:57.330Z,20.23
2022-10-10T11:29:59.014Z,20.22
2022-10-10T11:32:54.133Z,20.24
2022-10-10T11:35:46.469Z,20.23
2022-10-10T11:38:50.788Z,20.24
2022-10-10T11:42:15.018Z,20.24
2022-10-10T11:45:04.436Z,20.24
2022-10-10T11:47:52.881Z,20.24
2022-10-10T11:50:43.109Z,20.25
2022-10-10T11:53:41.311Z,20.25
2022-10-10T11:56:41.974Z,20.24
2022-10-10T11:59:49.563Z,20.24
2022-10-10T12:02:37.165Z,20.22
2022-10-10T12:05:29.010Z,20.23
2022-10-10T12:08:20.425Z,20.22
2022-10-10T12:11:24.869Z,20.23
2022-10-10T12:14:16.011Z,20.22
2022-10-10T12:17:01.717Z,20.22
2022-10-10T12:19:50.361Z,20.22
2022-10-10T12:22:35.555Z,20.21
2022-10-10T12:25:25.363Z,20.22
2022-10-10T12:28:13.943Z,20.22
2022-10-10T12:31:05.848Z,20.22
2022-10-10T12:33:51.309Z,20.21
2022-10-10T12:36:39.601Z,20.22
2022-10-10T12:39:24.994Z,20.21
2022-10-10T12:42:59.653Z,20.21
2022-10-10T12:45:53.674Z,20.21
2022-10-10T12:48:39.598Z,20.20
2022-10-10T12:51:25.585Z,20.21
2022-10-10T12:54:28.388Z,20.22
2022-10-10T12:57:25.737Z,20.21
2022-10-10T13:00:19.194Z,20.23
2022-10-10T13:03:13.198Z,20.23
2022-10-10T13:06:25.830Z,20.26
2022-10-10T13:09:24.153Z,20.26
2022-10-10T13:12:23.369Z,20.25
2022-10-10T13:15:20.413Z,20.26
2022-10-10T13:18:06.086Z,20.28
2022-10-10T13:20:56.273Z,20.30
2022-10-10T13:26:53.483Z,20.32
2022-10-10T13:29:40.908Z,20.34
2022-10-10T13:32:29.178Z,20.38
2022-10-10T13:35:18.678Z,20.41
2022-10-10T13:38:06.030Z,20.44
2022-10-10T13:40:52.478Z,20.45
2022-10-10T13:43:40.602Z,20.45
2022-10-10T13:46:33.730Z,20.48
2022-10-10T13:49:30.073Z,20.48
2022-10-10T13:52:24.649Z,20.49
2022-10-10T13:55:22.684Z,20.50
2022-10-10T13:58:11.217Z,20.52
2022-10-10T14:01:04.686Z,20.55
2022-10-10T14:03:51.781Z,20.57
2022-10-10T14:06:37.371Z,20.58
2022-10-10T14:09:31.075Z,20.59
2022-10-10T14:12:27.503Z,20.60
2022-10-10T14:15:40.875Z,20.61
2022-10-10T14:18:26.463Z,20.63
2022-10-10T14:21:12.232Z,20.64
2022-10-10T14:23:57.740Z,20.64
2022-10-10T14:26:43.674Z,20.67
2022-10-10T14:29:29.595Z,20.67
2022-10-10T14:32:15.459Z,20.67
2022-10-10T14:35:00.844Z,20.67
2022-10-10T14:37:46.143Z,20.65
2022-10-10T14:40:33.139Z,20.68
2022-10-10T14:43:23.625Z,20.66
2022-10-10T14:46:17.799Z,20.68
2022-10-10T14:49:03.607Z,20.64
2022-10-10T14:51:49.033Z,20.66
2022-10-10T14:54:34.693Z,20.64
2022-10-10T14:57:22.295Z,20.68
2022-10-10T15:00:13.824Z,20.70
2022-10-10T15:02:59.290Z,20.76
2022-10-10T15:05:45.271Z,20.76
2022-10-10T15:08:30.786Z,20.74
2022-10-10T15:11:17.951Z,20.78
2022-10-10T15:14:03.166Z,20.76
2022-10-10T15:16:48.995Z,20.79
2022-10-10T15:19:34.619Z,20.82
2022-10-10T15:22:20.261Z,20.83
2022-10-10T15:25:07.697Z,20.83
2022-10-10T15:27:53.080Z,20.82
2022-10-10T15:30:42.868Z,20.84
2022-10-10T15:33:28.862Z,20.85
2022-10-10T15:36:18.394Z,20.84
2022-10-10T15:39:04.335Z,20.84
2022-10-10T15:41:49.897Z,20.84
2022-10-10T15:44:35.476Z,20.84
2022-10-10T15:47:21.681Z,20.83
2022-10-10T15:50:09.701Z,20.83
2022-10-10T15:52:55.192Z,20.83
2022-10-10T15:55:45.684Z,20.82
2022-10-10T15:58:30.788Z,20.82
2022-10-10T16:01:18.822Z,20.80
2022-10-10T16:04:06.352Z,20.81
2022-10-10T16:06:59.516Z,20.84
2022-10-10T16:09:58.920Z,20.85
2022-10-10T16:12:44.217Z,20.88
2022-10-10T16:15:29.455Z,20.90
2022-10-10T16:18:14.766Z,20.87
2022-10-10T16:21:00.527Z,20.90
2022-10-10T16:23:47.860Z,20.92
2022-10-10T16:26:35.468Z,20.94
2022-10-10T16:29:21.029Z,20.95
2022-10-10T16:32:06.313Z,20.96
2022-10-10T16:34:51.757Z,20.96
2022-10-10T16:37:38.041Z,20.96
2022-10-10T16:40:24.235Z,20.96
2022-10-10T16:43:09.968Z,20.96
2022-10-10T16:45:55.499Z,20.96
2022-10-10T16:48:41.927Z,20.98
2022-10-10T16:51:29.810Z,21.00
2022-10-10T16:54:15.918Z,20.98
2022-10-10T16:57:01.454Z,20.99
2022-10-10T16:59:47.269Z,20.96
2022-10-10T17:02:33.402Z,20.93
2022-10-10T17:05:19.640Z,20.89
2022-10-10T17:08:05.012Z,20.86
2022-10-10T17:10:50.289Z,20.84
2022-10-10T17:13:37.453Z,20.83
2022-10-10T17:17:07.156Z,20.82
2022-10-10T17:19:33.868Z,20.84
2022-10-10T17:22:19.181Z,20.83
2022-10-10T17:25:04.959Z,20.84
2022-10-10T17:27:50.469Z,20.85
2022-10-10T17:30:36.162Z,20.87
2022-10-10T17:33:22.300Z,20.85
2022-10-10T17:36:11.171Z,20.82
2022-10-10T17:38:57.169Z,20.80
2022-10-10T17:41:42.475Z,20.77
2022-10-10T17:44:28.451Z,20.72
2022-10-10T17:47:14.164Z,20.72
2022-10-10T17:49:59.980Z,20.68
2022-10-10T17:52:45.499Z,20.66
2022-10-10T17:55:31.353Z,20.63
2022-10-10T17:58:17.204Z,20.61
2022-10-10T18:01:03.878Z,20.59
2022-10-10T18:03:49.350Z,20.59
2022-10-10T18:06:37.764Z,20.58
2022-10-10T18:09:23.111Z,20.58
2022-10-10T18:12:08.512Z,20.55
2022-10-10T18:14:54.724Z,20.54
2022-10-10T18:17:40.328Z,20.53
2022-10-10T18:20:26.009Z,20.51
2022-10-10T18:23:11.230Z,20.50
2022-10-10T18:26:05.425Z,20.48
2022-10-10T18:28:52.786Z,20.46
2022-10-10T18:31:39.211Z,20.44
2022-10-10T18:34:24.758Z,20.42
2022-10-10T18:37:10.754Z,20.42
2022-10-10T18:39:56.306Z,20.40
2022-10-10T18:42:42.228Z,20.37
2022-10-10T18:45:28.071Z,20.38
2022-10-10T18:48:13.636Z,20.35
2022-10-10T18:51:03.388Z,20.33
2022-10-10T18:53:48.778Z,20.32
2022-10-10T18:56:36.177Z,20.31
2022-10-10T18:59:22.243Z,20.30
2022-10-10T19:02:09.616Z,20.28
2022-10-10T19:04:55.131Z,20.27
2022-10-10T19:07:40.428Z,20.24
2022-10-10T19:10:25.965Z,20.24
2022-10-10T19:13:11.808Z,20.24
2022-10-10T19:16:03.929Z,20.22
2022-10-10T19:18:49.169Z,20.20
2022-10-10T19:21:37.197Z,20.18
2022-10-10T19:24:23.072Z,20.17
2022-10-10T19:27:08.309Z,20.17
2022-10-10T19:29:53.612Z,20.18
2022-10-10T19:32:39.004Z,20.15
2022-10-10T19:35:24.222Z,20.15
2022-10-10T19:38:10.761Z,20.14
2022-10-10T19:40:56.805Z,20.12
2022-10-10T19:43:44.446Z,20.13
2022-10-10T19:46:31.970Z,20.12
2022-10-10T19:49:18.838Z,20.11
2022-10-10T19:52:04.972Z,20.09
2022-10-10T19:54:52.986Z,20.09
2022-10-10T19:57:38.185Z,20.08
2022-10-10T20:00:23.557Z,20.07
2022-10-10T20:03:08.996Z,20.07
2022-10-10T20:06:00.542Z,20.07
2022-10-10T20:08:46.660Z,20.05
2022-10-10T20:11:32.485Z,20.04
2022-10-10T20:14:18.194Z,20.03
2022-10-10T20:17:03.580Z,20.04
2022-10-10T20:19:48.921Z,20.04
2022-10-10T20:22:34.618Z,20.03
2022-10-10T20:25:20.181Z,20.05
2022-10-10T20:28:05.876Z,20.02
2022-10-10T20:30:51.659Z,20.02
2022-10-10T20:33:37.286Z,20.02
2022-10-10T20:36:23.235Z,20.01
2022-10-10T20:39:12.864Z,20.01
2022-10-10T20:41:58.096Z,20.02
2022-10-10T20:44:43.309Z,20.02
2022-10-10T20:47:28.439Z,20.00
2022-10-10T20:50:14.327Z,20.00
2022-10-10T20:52:59.889Z,19.98
2022-10-10T20:55:45.178Z,20.00
2022-10-10T20:58:30.635Z,19.97
2022-10-10T21:01:19.020Z,19.95
2022-10-10T21:04:08.023Z,19.93
2022-10-10T21:06:53.440Z,19.91
2022-10-10T21:09:38.899Z,19.90
2022-10-10T21:12:24.083Z,19.89
2022-10-10T21:15:09.886Z,19.88
2022-10-10T21:17:55.543Z,19.88
2022-10-10T21:20:40.909Z,19.88
2022-10-10T21:23:27.309Z,19.88
2022-10-10T21:26:18.218Z,19.87
2022-10-10T21:29:04.007Z,19.87
2022-10-10T21:31:49.336Z,19.87
2022-10-10T21:34:34.526Z,19.88
2022-10-10T21:37:19.669Z,19.87
2022-10-10T21:40:05.494Z,19.88
2022-10-10T21:42:50.803Z,19.88
2022-10-10T21:45:38.092Z,19.88
2022-10-10T21:48:23.478Z,19.88
2022-10-10T21:51:09.408Z,19.88
2022-10-10T21:53:56.770Z,19.88
2022-10-10T21:56:42.221Z,19.88
2022-10-10T21:59:30.303Z,19.88
2022-10-10T22:02:15.601Z,19.88
2022-10-10T22:05:02.500Z,19.87
2022-10-10T22:07:47.531Z,19.87
2022-10-10T22:10:34.478Z,19.87
2022-10-10T22:13:20.069Z,19.86
2022-10-10T22:16:06.305Z,19.87
2022-10-10T22:18:56.522Z,19.88
2022-10-10T22:21:42.029Z,19.88
2022-10-10T22:24:27.238Z,19.88
2022-10-10T22:27:12.410Z,19.88
2022-10-10T22:29:57.635Z,19.87
2022-10-10T22:32:42.833Z,19.87
2022-10-10T22:35:28.186Z,19.88
2022-10-10T22:38:13.367Z,19.87
2022-10-10T22:40:58.553Z,19.87
2022-10-10T22:43:43.762Z,19.87
2022-10-10T22:46:29.549Z,19.88
2022-10-10T22:49:14.788Z,19.88
2022-10-10T22:52:00.149Z,19.86
2022-10-10T22:54:45.394Z,19.88
2022-10-10T22:57:30.643Z,19.87
2022-10-10T23:00:16.410Z,19.87
2022-10-10T23:03:01.599Z,19.87
2022-10-10T23:05:47.002Z,19.87
2022-10-10T23:08:33.391Z,19.87
2022-10-10T23:11:18.539Z,19.87
2022-10-10T23:14:04.700Z,19.87
2022-10-10T23:16:49.767Z,19.85
2022-10-10T23:19:35.123Z,19.85
2022-10-10T23:22:20.398Z,19.84
2022-10-10T23:25:06.138Z,19.85
2022-10-10T23:27:51.524Z,19.85
2022-10-10T23:30:44.123Z,19.84
2022-10-10T23:33:33.264Z,19.83
2022-10-10T23:36:21.403Z,19.84
2022-10-10T23:39:09.827Z,19.83
2022-10-10T23:41:55.633Z,19.83
2022-10-10T23:44:40.820Z,19.83
2022-10-10T23:47:26.270Z,19.82
2022-10-10T23:50:12.000Z,19.80
2022-10-10T23:52:57.407Z,19.81
2022-10-10T23:55:42.906Z,19.82
2022-10-10T23:58:28.144Z,19.80
